Time;durP1;ratioP1;P1;durP2;ratioP2;P2;SDS_P1;SDS_P2;PMS_P1;PMS_P2;Temp;Humidity;BMP_temperature;BMP_pressure;BME280_temperature;BME280_humidity;BME280_pressure;Samples;Min_cycle;Max_cycle;Signal;HPM_P1;HPM_P2
2021/01/22 00:01:59;;;;;;;;;;;;;;;6.29;70.27;96918.03;1698265;83;24712;-86
2021/01/22 00:04:46;;;;;;;;;;;;;;;6.26;70.26;96898.80;1706561;83;20494;-87
2021/01/22 00:07:33;;;;;;;;;;;;;;;6.28;70.29;96892.52;1698760;83;24996;-86
2021/01/22 00:10:19;;;;;;;;;;;;;;;6.33;70.29;96906.95;1653385;85;23040;-86
2021/01/22 00:13:04;;;;;;;;;;;;;;;6.36;70.29;96891.94;1653073;85;26193;-86
2021/01/22 00:15:50;;;;;;;;;;;;;;;6.37;70.30;96913.55;1709455;83;24592;-86
2021/01/22 00:18:36;;;;;;;;;;;;;;;6.43;70.31;96903.98;1702613;83;20459;-85
2021/01/22 00:21:22;;;;;;;;;;;;;;;6.45;70.33;96908.58;1703938;83;24900;-86
2021/01/22 00:24:09;;;;;;;;;;;;;;;6.46;70.35;96905.03;1703779;83;22142;-86
2021/01/22 00:26:55;;;;;;;;;;;;;;;6.48;70.35;96913.08;1703433;83;26107;-86
2021/01/22 00:29:41;;;;;;;;;;;;;;;6.51;70.35;96921.92;1706162;83;24635;-85
2021/01/22 00:32:27;;;;;;;;;;;;;;;6.54;70.36;96915.67;1699522;83;20455;-85
2021/01/22 00:35:13;;;;;;;;;;;;;;;6.53;70.36;96924.41;1698615;83;24887;-88
2021/01/22 00:38:02;;;;;;;;;;;;;;;6.52;70.35;96914.95;1707053;83;21439;-88
2021/01/22 00:40:48;;;;;;;;;;;;;;;6.52;70.35;96905.39;1703362;83;27016;-88
2021/01/22 00:43:35;;;;;;;;;;;;;;;6.57;70.34;96903.73;1700415;83;25599;-88
2021/01/22 00:46:24;;;;;;;;;;;;;;;6.55;70.34;96906.91;1701030;83;20484;-88
2021/01/22 00:49:10;;;;;;;;;;;;;;;6.53;70.34;96899.73;1703079;83;25715;-88
2021/01/22 00:51:57;;;;;;;;;;;;;;;6.51;70.33;96888.61;1704993;83;22982;-88
2021/01/22 00:54:42;;;;;;;;;;;;;;;6.52;70.31;96874.67;1702203;83;26273;-88
2021/01/22 00:57:29;;;;;;;;;;;;;;;6.51;70.33;96880.81;1705707;83;24919;-88
2021/01/22 01:00:15;;;;;;;;;;;;;;;6.52;70.33;96868.18;1701609;83;20543;-87
2021/01/22 01:03:01;;;;;;;;;;;;;;;6.49;70.32;96856.23;1704375;83;24894;-88
2021/01/22 01:05:47;;;;;;;;;;;;;;;6.53;70.33;96839.95;1705056;83;22323;-88
2021/01/22 01:08:33;;;;;;;;;;;;;;;6.50;70.31;96832.38;1703873;83;26308;-84
2021/01/22 01:11:20;;;;;;;;;;;;;;;6.51;70.30;96818.45;1704059;83;24715;-85
2021/01/22 01:14:06;;;;;;;;;;;;;;;6.56;70.31;96822.80;1696333;83;20300;-85
2021/01/22 01:16:52;;;;;;;;;;;;;;;6.62;70.31;96826.22;1664995;85;24965;-85
2021/01/22 01:19:42;;;;;;;;;;;;;;;6.66;70.32;96804.22;1663509;84;22837;-86
2021/01/22 01:22:33;;;;;;;;;;;;;;;6.69;70.32;96788.40;1660359;85;26150;-89
2021/01/22 01:25:20;;;;;;;;;;;;;;;6.72;70.32;96788.97;1660785;85;24621;-90
2021/01/22 01:28:10;;;;;;;;;;;;;;;6.74;70.32;96790.16;1667136;84;20569;-90
2021/01/22 01:30:57;;;;;;;;;;;;;;;6.76;70.33;96766.64;1661703;85;24976;-87
2021/01/22 01:33:43;;;;;;;;;;;;;;;6.77;70.30;96763.06;1653887;86;22973;-88
2021/01/22 01:36:28;;;;;;;;;;;;;;;6.79;70.31;96773.70;1696640;84;26082;-85
2021/01/22 01:39:14;;;;;;;;;;;;;;;6.81;70.29;96754.92;1699956;84;24619;-88
2021/01/22 01:42:00;;;;;;;;;;;;;;;6.83;70.28;96746.50;1697584;84;20400;-88
2021/01/22 01:44:46;;;;;;;;;;;;;;;6.83;70.28;96762.09;1702481;84;25081;-88
2021/01/22 01:47:33;;;;;;;;;;;;;;;6.82;70.26;96743.55;1702251;84;22002;-88
2021/01/22 01:50:26;;;;;;;;;;;;;;;6.80;70.24;96714.27;1617075;83;22157;-89
2021/01/22 01:53:15;;;;;;;;;;;;;;;6.83;70.23;96710.10;1633810;87;25500;-89
2021/01/22 01:56:01;;;;;;;;;;;;;;;6.85;70.21;96716.48;1634522;87;20277;-89
2021/01/22 01:58:47;;;;;;;;;;;;;;;6.86;70.21;96716.37;1634057;87;24910;-85
2021/01/22 02:01:33;;;;;;;;;;;;;;;6.84;70.18;96716.13;1632433;87;22966;-85
2021/01/22 02:04:23;;;;;;;;;;;;;;;6.83;70.17;96699.70;1632862;86;26176;-84
2021/01/22 02:07:09;;;;;;;;;;;;;;;6.84;70.15;96704.42;1632651;87;24920;-85
2021/01/22 02:09:55;;;;;;;;;;;;;;;6.82;70.14;96708.44;1633002;87;20487;-85
2021/01/22 02:12:40;;;;;;;;;;;;;;;6.85;70.13;96700.87;1633332;87;25767;-84
2021/01/22 02:15:26;;;;;;;;;;;;;;;6.84;70.12;96687.05;1633974;86;22201;-89
2021/01/22 02:18:12;;;;;;;;;;;;;;;6.86;70.12;96696.86;1631673;87;27036;-89
2021/01/22 02:20:58;;;;;;;;;;;;;;;6.86;70.11;96687.77;1632784;87;24734;-89
2021/01/22 02:23:45;;;;;;;;;;;;;;;6.86;70.10;96689.06;1633531;87;20393;-89
2021/01/22 02:26:30;;;;;;;;;;;;;;;6.89;70.07;96681.47;1629581;87;24869;-87
2021/01/22 02:29:16;;;;;;;;;;;;;;;6.90;70.06;96680.52;1632919;87;22152;-84
2021/01/22 02:32:03;;;;;;;;;;;;;;;6.89;70.04;96680.17;1632628;86;26983;-84
2021/01/22 02:34:50;;;;;;;;;;;;;;;6.93;70.03;96693.25;1619120;87;24548;-84
2021/01/22 02:37:36;;;;;;;;;;;;;;;6.93;70.01;96690.19;1632677;87;20285;-87
2021/01/22 02:40:24;;;;;;;;;;;;;;;6.97;70.01;96711.58;1633640;87;25165;-87
2021/01/22 02:43:12;;;;;;;;;;;;;;;6.97;69.98;96696.80;1634494;86;22250;-88
2021/01/22 02:45:58;;;;;;;;;;;;;;;6.99;69.98;96710.95;1633735;87;26219;-85
2021/01/22 02:48:44;;;;;;;;;;;;;;;7.01;69.95;96703.86;1637204;86;25594;-85
2021/01/22 02:51:30;;;;;;;;;;;;;;;7.03;69.96;96709.30;1682398;84;20546;-84
2021/01/22 02:54:18;;;;;;;;;;;;;;;7.07;69.94;96695.08;1688382;83;25723;-88
2021/01/22 02:57:05;;;;;;;;;;;;;;;7.07;69.94;96704.19;1648735;87;22303;-85
2021/01/22 02:59:51;;;;;;;;;;;;;;;7.09;69.92;96716.56;1649209;87;26373;-85
2021/01/22 03:02:37;;;;;;;;;;;;;;;7.09;69.90;96706.66;1630728;86;24453;-88
2021/01/22 03:05:24;;;;;;;;;;;;;;;7.11;69.88;96705.56;1648473;87;21134;-88
2021/01/22 03:08:11;;;;;;;;;;;;;;;7.12;69.85;96692.09;1650341;86;24981;-85
2021/01/22 03:10:58;;;;;;;;;;;;;;;7.15;69.81;96700.45;1635812;87;22033;-84
2021/01/22 03:13:45;;;;;;;;;;;;;;;7.16;69.82;96709.08;1649455;87;26109;-88
2021/01/22 03:16:18;;;;;;;;;;;;;;;7.15;69.78;96713.45;1649962;87;24992;-88
2021/01/22 03:19:05;;;;;;;;;;;;;;;7.16;69.77;96703.88;1648642;85;20417;-88
2021/01/22 03:21:51;;;;;;;;;;;;;;;7.17;69.76;96704.70;1649927;87;24904;-87
2021/01/22 03:24:37;;;;;;;;;;;;;;;7.17;69.75;96687.80;1649824;85;23035;-84
2021/01/22 03:27:23;;;;;;;;;;;;;;;7.17;69.74;96695.59;1650807;87;27035;-87
2021/01/22 03:30:09;;;;;;;;;;;;;;;7.23;69.70;96685.98;1650666;87;24713;-88
2021/01/22 03:32:56;;;;;;;;;;;;;;;7.21;69.69;96682.20;1650750;86;20284;-87
2021/01/22 03:35:42;;;;;;;;;;;;;;;7.23;69.67;96687.28;1650375;87;24987;-88
2021/01/22 03:38:29;;;;;;;;;;;;;;;7.24;69.66;96677.23;1649292;85;22230;-88
2021/01/22 03:41:15;;;;;;;;;;;;;;;7.19;69.62;96671.12;1648436;87;26174;-88
2021/01/22 03:44:01;;;;;;;;;;;;;;;7.21;69.62;96673.57;1650653;87;24936;-88
2021/01/22 03:46:47;;;;;;;;;;;;;;;7.19;69.61;96675.50;1648998;87;20292;-88
2021/01/22 03:49:22;;;;;;;;;;;;;;;7.20;69.59;96669.34;1650874;85;24966;-87
2021/01/22 03:52:08;;;;;;;;;;;;;;;7.21;69.57;96665.77;1649491;87;22302;-87
2021/01/22 03:54:54;;;;;;;;;;;;;;;7.22;69.57;96663.52;1650871;87;27831;-88
2021/01/22 03:57:39;;;;;;;;;;;;;;;7.25;69.57;96669.78;1650562;87;24875;-87
2021/01/22 04:00:25;;;;;;;;;;;;;;;7.24;69.57;96666.34;1649938;87;20618;-87
2021/01/22 04:03:11;;;;;;;;;;;;;;;7.26;69.56;96663.59;1650334;87;24914;-87
2021/01/22 04:05:57;;;;;;;;;;;;;;;7.28;69.57;96652.12;1631746;86;21547;-88
2021/01/22 04:08:43;;;;;;;;;;;;;;;7.25;69.57;96639.39;1650614;86;26129;-88
2021/01/22 04:11:29;;;;;;;;;;;;;;;7.23;69.55;96642.58;1649679;86;24593;-88
2021/01/22 04:14:15;;;;;;;;;;;;;;;7.22;69.54;96627.09;1650713;85;20323;-88
2021/01/22 04:17:01;;;;;;;;;;;;;;;7.15;69.54;96612.00;1648872;87;24983;-88
2021/01/22 04:19:47;;;;;;;;;;;;;;;7.18;69.52;96615.31;1649629;87;22174;-89
2021/01/22 04:22:33;;;;;;;;;;;;;;;7.21;69.54;96633.25;1650783;86;26148;-88
2021/01/22 04:25:19;;;;;;;;;;;;;;;7.24;69.54;96621.30;1650727;87;24636;-89
2021/01/22 04:28:05;;;;;;;;;;;;;;;7.24;69.56;96614.80;1649251;87;20417;-89
2021/01/22 04:30:51;;;;;;;;;;;;;;;7.21;69.57;96608.06;1650155;86;24998;-89
2021/01/22 04:33:36;;;;;;;;;;;;;;;7.20;69.56;96603.80;1650848;87;22443;-88
2021/01/22 04:36:23;;;;;;;;;;;;;;;7.26;69.57;96589.45;1650483;87;26245;-87
2021/01/22 04:39:09;;;;;;;;;;;;;;;7.28;69.58;96579.27;1650057;87;25480;-87
2021/01/22 04:41:56;;;;;;;;;;;;;;;7.30;69.59;96570.04;1650467;87;20614;-87
2021/01/22 04:44:42;;;;;;;;;;;;;;;7.23;69.61;96557.20;1664479;86;25745;-88
2021/01/22 04:47:28;;;;;;;;;;;;;;;7.20;69.60;96566.08;1682609;84;22132;-87
2021/01/22 04:50:15;;;;;;;;;;;;;;;7.22;69.61;96560.28;1645911;86;26061;-88
2021/01/22 04:53:00;;;;;;;;;;;;;;;7.20;69.61;96559.58;1644833;87;24637;-88
2021/01/22 04:55:46;;;;;;;;;;;;;;;7.20;69.59;96559.58;1646926;85;20266;-87
2021/01/22 04:58:32;;;;;;;;;;;;;;;7.21;69.63;96557.80;1648572;87;25140;-88
2021/01/22 05:01:18;;;;;;;;;;;;;;;7.22;69.65;96554.25;1678516;85;22119;-88
2021/01/22 05:04:04;;;;;;;;;;;;;;;7.23;69.63;96553.30;1678151;85;26124;-88
2021/01/22 05:06:49;;;;;;;;;;;;;;;7.23;69.67;96555.43;1677786;85;25502;-89
2021/01/22 05:09:37;;;;;;;;;;;;;;;7.27;69.69;96552.08;1676800;85;20505;-88
2021/01/22 05:12:23;;;;;;;;;;;;;;;7.30;69.69;96558.33;1677912;85;24906;-88
2021/01/22 05:15:09;;;;;;;;;;;;;;;7.32;69.71;96554.63;1686047;85;22159;-88
2021/01/22 05:17:55;;;;;;;;;;;;;;;7.34;69.73;96550.13;1676662;85;26203;-88
2021/01/22 05:20:41;;;;;;;;;;;;;;;7.35;69.75;96549.64;1670449;84;24711;-88
2021/01/22 05:23:28;;;;;;;;;;;;;;;7.36;69.76;96547.39;1670791;86;20223;-88
2021/01/22 05:26:20;;;;;;;;;;;;;;;7.40;69.78;96560.00;1667907;86;25728;-88
2021/01/22 05:29:06;;;;;;;;;;;;;;;7.42;69.79;96561.14;1668529;86;22300;-88
2021/01/22 05:31:51;;;;;;;;;;;;;;;7.40;69.80;96564.37;1669758;86;26885;-88
2021/01/22 05:34:37;;;;;;;;;;;;;;;7.39;69.81;96566.16;1669260;84;24566;-88
2021/01/22 05:37:25;;;;;;;;;;;;;;;7.38;69.81;96555.87;1670404;86;20545;-89
2021/01/22 05:40:11;;;;;;;;;;;;;;;7.42;69.84;96555.94;1669060;86;24979;-89
2021/01/22 05:42:57;;;;;;;;;;;;;;;7.42;69.85;96552.04;1670915;86;22153;-89
2021/01/22 05:45:42;;;;;;;;;;;;;;;7.37;69.85;96538.13;1670072;86;26109;-89
2021/01/22 05:48:28;;;;;;;;;;;;;;;7.36;69.87;96536.98;1667672;86;25013;-88
2021/01/22 05:51:15;;;;;;;;;;;;;;;7.35;69.85;96538.77;1668930;85;20249;-88
2021/01/22 05:54:00;;;;;;;;;;;;;;;7.36;69.88;96539.59;1667836;86;24025;-88
2021/01/22 05:56:46;;;;;;;;;;;;;;;7.36;69.86;96536.52;1669087;86;22202;-88
2021/01/22 05:59:34;;;;;;;;;;;;;;;7.38;69.87;96537.18;1668732;86;26162;-88
2021/01/22 06:02:20;;;;;;;;;;;;;;;7.41;69.86;96539.53;1669531;86;24801;-88
2021/01/22 06:05:06;;;;;;;;;;;;;;;7.39;69.86;96540.13;1669587;86;20307;-89
2021/01/22 06:07:52;;;;;;;;;;;;;;;7.36;69.89;96540.41;1669713;85;24923;-88
2021/01/22 06:10:38;;;;;;;;;;;;;;;7.39;69.89;96545.81;1665819;86;22125;-89
2021/01/22 06:13:25;;;;;;;;;;;;;;;7.42;69.91;96549.44;1669172;84;26113;-86
2021/01/22 06:16:11;;;;;;;;;;;;;;;7.39;69.93;96550.55;1668800;86;24624;-86
2021/01/22 06:18:56;;;;;;;;;;;;;;;7.39;69.93;96552.31;1667871;86;20271;-85
2021/01/22 06:21:43;;;;;;;;;;;;;;;7.37;69.95;96547.23;1667893;86;24913;-85
2021/01/22 06:24:29;;;;;;;;;;;;;;;7.37;69.97;96558.13;1669609;86;22307;-85
2021/01/22 06:27:15;;;;;;;;;;;;;;;7.39;69.97;96560.12;1668183;86;26198;-88
2021/01/22 06:30:01;;;;;;;;;;;;;;;7.42;70.00;96563.75;1648454;86;24515;-88
2021/01/22 06:32:49;;;;;;;;;;;;;;;7.41;70.01;96566.86;1670793;86;20955;-88
2021/01/22 06:35:35;;;;;;;;;;;;;;;7.41;70.01;96555.15;1669053;86;24921;-89
2021/01/22 06:38:22;;;;;;;;;;;;;;;7.44;70.03;96565.27;1667405;86;23017;-89
2021/01/22 06:41:09;;;;;;;;;;;;;;;7.42;70.05;96553.34;1669089;86;26113;-89
2021/01/22 06:43:55;;;;;;;;;;;;;;;7.41;70.05;96555.15;1666589;84;24645;-88
2021/01/22 06:46:41;;;;;;;;;;;;;;;7.43;70.06;96551.09;1668719;84;20283;-88
2021/01/22 06:49:27;;;;;;;;;;;;;;;7.40;70.07;96549.59;1668452;84;24917;-89
2021/01/22 06:52:12;;;;;;;;;;;;;;;7.33;70.07;96535.94;1668195;86;22648;-88
2021/01/22 06:55:00;;;;;;;;;;;;;;;7.38;70.06;96548.06;1667499;84;27134;-89
2021/01/22 06:57:40;;;;;;;;;;;;;;;7.45;70.07;96543.98;1675860;84;24639;-88
2021/01/22 07:00:26;;;;;;;;;;;;;;;7.45;70.08;96556.99;1651328;85;20496;-88
2021/01/22 07:03:15;;;;;;;;;;;;;;;7.46;70.08;96558.17;1648547;87;25082;-88
2021/01/22 07:06:04;;;;;;;;;;;;;;;7.47;70.10;96558.48;1678478;84;22217;-87
2021/01/22 07:08:49;;;;;;;;;;;;;;;7.51;70.09;96550.78;1677714;84;26152;-89
2021/01/22 07:11:36;;;;;;;;;;;;;;;7.54;70.09;96560.08;1677371;85;24675;-89
2021/01/22 07:14:24;;;;;;;;;;;;;;;7.57;70.10;96555.92;1652458;87;20257;-89
2021/01/22 07:17:10;;;;;;;;;;;;;;;7.63;70.08;96561.08;1651665;85;25851;-88
2021/01/22 07:19:56;;;;;;;;;;;;;;;7.70;70.10;96556.48;1649366;87;22151;-88
2021/01/22 07:22:42;;;;;;;;;;;;;;;7.76;70.11;96561.14;1652422;85;26140;-88
2021/01/22 07:25:28;;;;;;;;;;;;;;;7.78;70.11;96563.63;1634713;87;24524;-89
2021/01/22 07:28:14;;;;;;;;;;;;;;;7.77;70.11;96560.19;1652524;87;20666;-88
2021/01/22 07:31:00;;;;;;;;;;;;;;;7.85;70.08;96554.31;1652265;87;24905;-89
2021/01/22 07:33:47;;;;;;;;;;;;;;;7.85;70.08;96555.62;1652008;87;22192;-88
2021/01/22 07:36:33;;;;;;;;;;;;;;;7.84;70.06;96550.89;1651682;87;26090;-88
2021/01/22 07:39:19;;;;;;;;;;;;;;;7.81;70.06;96551.14;1652201;87;24646;-89
2021/01/22 07:42:05;;;;;;;;;;;;;;;7.81;70.04;96545.94;1650749;87;20378;-88
2021/01/22 07:44:51;;;;;;;;;;;;;;;7.83;70.03;96551.02;1651323;87;24924;-88
2021/01/22 07:47:38;;;;;;;;;;;;;;;7.86;70.02;96547.65;1652240;87;22137;-88
2021/01/22 07:50:24;;;;;;;;;;;;;;;7.88;70.00;96547.05;1634650;87;26066;-88
2021/01/22 07:53:10;;;;;;;;;;;;;;;7.95;69.98;96550.76;1619044;87;25507;-88
2021/01/22 07:55:57;;;;;;;;;;;;;;;8.00;69.99;96550.34;1617549;88;20516;-88
2021/01/22 07:58:46;;;;;;;;;;;;;;;8.05;70.00;96551.22;1617328;88;25823;-89
2021/01/22 08:01:32;;;;;;;;;;;;;;;8.12;70.01;96557.54;1619368;87;22166;-88
2021/01/22 08:04:18;;;;;;;;;;;;;;;8.16;69.98;96564.11;1618733;88;26219;-88
2021/01/22 08:07:04;;;;;;;;;;;;;;;8.18;69.99;96568.20;1619246;88;24633;-88
2021/01/22 08:09:51;;;;;;;;;;;;;;;8.17;69.96;96558.77;1619048;88;20301;-87
2021/01/22 08:12:37;;;;;;;;;;;;;;;8.15;69.96;96558.55;1619219;88;24792;-88
2021/01/22 08:15:25;;;;;;;;;;;;;;;8.21;69.95;96565.82;1617614;88;22262;-88
2021/01/22 08:18:12;;;;;;;;;;;;;;;8.25;69.92;96563.27;1619254;88;26074;-88
2021/01/22 08:20:59;;;;;;;;;;;;;;;8.29;69.92;96572.48;1617688;88;24620;-88
2021/01/22 08:23:47;;;;;;;;;;;;;;;8.31;69.92;96566.19;1613008;88;20352;-88
2021/01/22 08:26:33;;;;;;;;;;;;;;;8.35;69.90;96574.53;1617195;88;24937;-88
2021/01/22 08:29:19;;;;;;;;;;;;;;;8.40;69.87;96577.07;1619120;88;22139;-88
2021/01/22 08:32:06;;;;;;;;;;;;;;;8.47;69.86;96564.78;1619350;88;26147;-85
2021/01/22 08:34:52;;;;;;;;;;;;;;;8.56;69.85;96575.22;1617228;88;25454;-85
2021/01/22 08:37:37;;;;;;;;;;;;;;;8.62;69.84;96578.55;1618155;87;20530;-85
2021/01/22 08:40:23;;;;;;;;;;;;;;;8.68;69.83;96587.11;1618452;88;25913;-88
2021/01/22 08:43:09;;;;;;;;;;;;;;;8.77;69.80;96597.20;1617783;88;21250;-88
2021/01/22 08:45:56;;;;;;;;;;;;;;;8.82;69.76;96585.86;1618816;87;25976;-85
2021/01/22 08:48:42;;;;;;;;;;;;;;;8.90;69.75;96578.61;1619250;87;24583;-88
2021/01/22 08:51:28;;;;;;;;;;;;;;;8.93;69.71;96577.04;1629056;85;20276;-89
2021/01/22 08:54:14;;;;;;;;;;;;;;;8.97;69.69;96570.56;1649856;87;24871;-88
2021/01/22 08:57:00;;;;;;;;;;;;;;;9.01;69.66;96578.44;1649445;87;22298;-88
2021/01/22 08:59:50;;;;;;;;;;;;;;;9.07;69.62;96577.39;1650640;87;26143;-88
2021/01/22 09:02:36;;;;;;;;;;;;;;;9.13;69.57;96572.91;1644253;85;24730;-88
2021/01/22 09:05:22;;;;;;;;;;;;;;;9.23;69.51;96574.98;1643152;87;20523;-89
2021/01/22 09:08:08;;;;;;;;;;;;;;;9.33;69.47;96579.36;1649036;85;25173;-88
2021/01/22 09:10:59;;;;;;;;;;;;;;;9.35;69.40;96583.94;1647399;87;22559;-86
2021/01/22 09:13:47;;;;;;;;;;;;;;;9.38;69.35;96580.55;1647478;87;26285;-86
2021/01/22 09:16:33;;;;;;;;;;;;;;;9.42;69.28;96579.31;1648292;87;25546;-87
2021/01/22 09:19:21;;;;;;;;;;;;;;;9.46;69.24;96579.34;1649407;86;20276;-89
2021/01/22 09:22:06;;;;;;;;;;;;;;;9.52;69.19;96580.55;1643250;87;24710;-87
2021/01/22 09:24:54;;;;;;;;;;;;;;;9.57;69.12;96581.77;1647538;87;22112;-87
2021/01/22 09:27:40;;;;;;;;;;;;;;;9.65;69.07;96584.45;1650658;86;25591;-87
2021/01/22 09:30:26;;;;;;;;;;;;;;;9.70;69.03;96580.59;1647965;87;24608;-87
2021/01/22 09:33:12;;;;;;;;;;;;;;;9.78;68.95;96575.44;1649426;85;20390;-87
2021/01/22 09:35:58;;;;;;;;;;;;;;;9.81;68.92;96564.23;1661005;86;25907;-88
2021/01/22 09:38:44;;;;;;;;;;;;;;;9.81;68.86;96575.16;1677703;84;22165;-88
2021/01/22 09:41:31;;;;;;;;;;;;;;;9.78;68.79;96575.44;1650420;87;26127;-89
2021/01/22 09:44:18;;;;;;;;;;;;;;;9.70;68.71;96573.59;1656578;86;24721;-88
2021/01/22 09:47:05;;;;;;;;;;;;;;;9.64;68.59;96558.02;1667062;85;20278;-88
2021/01/22 09:49:51;;;;;;;;;;;;;;;9.57;68.51;96573.92;1627991;86;25362;-88
2021/01/22 09:52:38;;;;;;;;;;;;;;;9.46;68.45;96562.86;1619177;86;22226;-89
2021/01/22 09:55:24;;;;;;;;;;;;;;;9.45;68.40;96579.00;1662529;85;26231;-86
2021/01/22 09:58:10;;;;;;;;;;;;;;;9.45;68.35;96575.56;1668756;85;24676;-87
2021/01/22 10:00:58;;;;;;;;;;;;;;;9.48;68.31;96587.05;1633359;85;33102;-86
2021/01/22 10:03:44;;;;;;;;;;;;;;;9.56;68.29;96585.81;1633291;87;24992;-89
2021/01/22 10:06:32;;;;;;;;;;;;;;;9.62;68.28;96583.45;1629920;87;22147;-89
2021/01/22 10:09:18;;;;;;;;;;;;;;;9.65;68.26;96581.05;1668750;85;26146;-89
2021/01/22 10:12:06;;;;;;;;;;;;;;;9.72;68.25;96576.03;1616347;87;24712;-88
2021/01/22 10:14:52;;;;;;;;;;;;;;;9.80;68.24;96578.74;1669540;85;20528;-88
2021/01/22 10:17:40;;;;;;;;;;;;;;;9.89;68.22;96575.23;1619685;87;25806;-88
2021/01/22 10:20:26;;;;;;;;;;;;;;;9.94;68.20;96565.16;1655277;85;22174;-88
2021/01/22 10:23:12;;;;;;;;;;;;;;;10.00;68.18;96560.64;1630458;87;26159;-88
2021/01/22 10:25:58;;;;;;;;;;;;;;;10.04;68.17;96566.72;1665100;85;25440;-88
2021/01/22 10:28:47;;;;;;;;;;;;;;;10.06;68.17;96573.12;1628060;87;20375;-88
2021/01/22 10:31:33;;;;;;;;;;;;;;;10.09;68.13;96578.06;1649844;86;24919;-89
2021/01/22 10:34:19;;;;;;;;;;;;;;;10.10;68.10;96584.91;1665997;85;21962;-88
2021/01/22 10:37:05;;;;;;;;;;;;;;;10.14;68.06;96581.05;1631041;87;26403;-88
2021/01/22 10:39:51;;;;;;;;;;;;;;;10.16;68.02;96590.02;1636991;86;24860;-87
2021/01/22 10:42:37;;;;;;;;;;;;;;;10.15;67.97;96597.04;1641736;86;20362;-87
2021/01/22 10:45:23;;;;;;;;;;;;;;;10.12;67.96;96597.84;1627391;86;25796;-88
2021/01/22 10:48:09;;;;;;;;;;;;;;;10.12;67.94;96597.84;1629290;86;22176;-87
2021/01/22 10:50:55;;;;;;;;;;;;;;;10.15;67.91;96594.42;1658089;86;27201;-88
2021/01/22 10:53:41;;;;;;;;;;;;;;;10.12;67.89;96588.69;1653452;85;24651;-88
2021/01/22 10:56:27;;;;;;;;;;;;;;;10.08;67.87;96584.25;1620561;86;20288;-88
2021/01/22 10:59:13;;;;;;;;;;;;;;;10.03;67.84;96574.25;1646728;86;24970;-88
2021/01/22 11:01:59;;;;;;;;;;;;;;;9.99;67.80;96564.22;1659947;86;22159;-88
2021/01/22 11:04:45;;;;;;;;;;;;;;;9.97;67.79;96570.92;1662421;85;26130;-85
2021/01/22 11:07:32;;;;;;;;;;;;;;;9.99;67.78;96552.46;1635017;86;24621;-86
2021/01/22 11:10:18;;;;;;;;;;;;;;;9.95;67.74;96551.13;1638391;86;20457;-86
2021/01/22 11:13:04;;;;;;;;;;;;;;;9.91;67.71;96556.32;1665469;85;25006;-88
2021/01/22 11:15:50;;;;;;;;;;;;;;;9.85;67.70;96554.30;1638331;86;22177;-87
2021/01/22 11:18:35;;;;;;;;;;;;;;;9.78;67.67;96544.92;1639624;86;26112;-88
2021/01/22 11:21:22;;;;;;;;;;;;;;;9.71;67.60;96544.38;1639760;86;24806;-88
2021/01/22 11:24:08;;;;;;;;;;;;;;;9.68;67.56;96531.11;1634981;86;20402;-88
2021/01/22 11:26:54;;;;;;;;;;;;;;;9.63;67.52;96534.17;1633964;86;24888;-89
2021/01/22 11:29:40;;;;;;;;;;;;;;;9.56;67.52;96537.02;1646192;86;22153;-89
2021/01/22 11:32:29;;;;;;;;;;;;;;;9.53;67.52;96543.03;1621888;86;26161;-89
2021/01/22 11:35:15;;;;;;;;;;;;;;;9.48;67.48;96536.95;1654212;85;24695;-89
2021/01/22 11:38:03;;;;;;;;;;;;;;;9.47;67.50;96536.61;1653199;85;20350;-88
2021/01/22 11:40:52;;;;;;;;;;;;;;;9.46;67.50;96549.32;1650912;85;25902;-89
2021/01/22 11:43:39;;;;;;;;;;;;;;;9.41;67.51;96558.08;1643420;84;22335;-88
2021/01/22 11:46:26;;;;;;;;;;;;;;;9.39;67.51;96560.00;1623114;88;26156;-88
2021/01/22 11:49:14;;;;;;;;;;;;;;;9.39;67.54;96557.39;1625550;88;23988;-88
2021/01/22 11:52:04;;;;;;;;;;;;;;;9.40;67.56;96565.56;1625751;86;20167;-88
2021/01/22 11:54:50;;;;;;;;;;;;;;;9.37;67.59;96563.26;1623891;88;24953;-88
2021/01/22 11:57:36;;;;;;;;;;;;;;;9.35;67.63;96567.80;1625242;88;21474;-86
2021/01/22 12:00:22;;;;;;;;;;;;;;;9.32;67.64;96577.23;1626347;88;26991;-86
2021/01/22 12:03:08;;;;;;;;;;;;;;;9.30;67.68;96584.38;1626782;88;24620;-88
2021/01/22 12:05:54;;;;;;;;;;;;;;;9.24;67.70;96579.73;1625454;88;20281;-86
2021/01/22 12:08:42;;;;;;;;;;;;;;;9.22;67.74;96573.34;1627333;88;25815;-86
2021/01/22 12:11:28;;;;;;;;;;;;;;;9.19;67.79;96561.89;1627396;88;22335;-85
2021/01/22 12:14:14;;;;;;;;;;;;;;;9.20;67.85;96566.16;1629466;85;27145;-86
2021/01/22 12:17:00;;;;;;;;;;;;;;;9.20;67.89;96568.77;1625762;86;24647;-86
2021/01/22 12:19:50;;;;;;;;;;;;;;;9.18;67.96;96558.12;1631184;85;20643;-88
2021/01/22 12:22:37;;;;;;;;;;;;;;;9.15;68.04;96559.24;1617899;87;25140;-88
2021/01/22 12:25:23;;;;;;;;;;;;;;;9.13;68.11;96565.08;1630187;86;22149;-88
2021/01/22 12:28:09;;;;;;;;;;;;;;;9.15;68.18;96559.72;1615903;88;26050;-88
2021/01/22 12:30:55;;;;;;;;;;;;;;;9.13;68.22;96554.64;1616686;87;24538;-88
2021/01/22 12:33:41;;;;;;;;;;;;;;;9.08;68.32;96556.86;1616726;88;20298;-89
2021/01/22 12:36:27;;;;;;;;;;;;;;;9.02;68.39;96560.05;1610677;88;25052;-88
2021/01/22 12:39:13;;;;;;;;;;;;;;;8.98;68.44;96556.08;1619201;88;22236;-87
2021/01/22 12:41:59;;;;;;;;;;;;;;;8.95;68.52;96554.22;1613551;87;27292;-88
2021/01/22 12:44:45;;;;;;;;;;;;;;;8.92;68.62;96554.52;1648552;85;24602;-88
2021/01/22 12:47:36;;;;;;;;;;;;;;;8.88;68.69;96552.69;1613289;87;20472;-88
2021/01/22 12:50:22;;;;;;;;;;;;;;;8.88;68.76;96546.65;1641873;86;25783;-88
2021/01/22 12:53:08;;;;;;;;;;;;;;;8.77;68.87;96526.78;1640941;86;22295;-89
2021/01/22 12:55:54;;;;;;;;;;;;;;;8.83;68.95;96543.17;1640589;86;27040;-89
2021/01/22 12:58:40;;;;;;;;;;;;;;;8.81;69.05;96535.95;1653799;86;24592;-88
2021/01/22 13:01:26;;;;;;;;;;;;;;;8.81;69.16;96533.34;1651407;85;20673;-89
2021/01/22 13:04:12;;;;;;;;;;;;;;;8.82;69.24;96540.22;1653362;85;25157;-89
2021/01/22 13:06:58;;;;;;;;;;;;;;;8.78;69.34;96533.65;1653521;86;22117;-88
2021/01/22 13:09:44;;;;;;;;;;;;;;;8.74;69.43;96540.91;1655380;85;27016;-89
2021/01/22 13:12:30;;;;;;;;;;;;;;;8.70;69.53;96541.34;1656192;85;25479;-89
2021/01/22 13:15:17;;;;;;;;;;;;;;;8.66;69.61;96551.25;1658746;85;20377;-89
2021/01/22 13:18:03;;;;;;;;;;;;;;;8.62;69.72;96561.59;1653651;85;24883;-90
2021/01/22 13:20:52;;;;;;;;;;;;;;;8.58;69.79;96568.06;1649094;85;22102;-89
2021/01/22 13:23:42;;;;;;;;;;;;;;;8.50;69.90;96571.87;1656849;83;27217;-89
2021/01/22 13:26:28;;;;;;;;;;;;;;;8.46;70.00;96567.88;1626377;87;24642;-89
2021/01/22 13:29:15;;;;;;;;;;;;;;;8.39;70.10;96563.72;1613364;87;20487;-87
2021/01/22 13:32:01;;;;;;;;;;;;;;;8.38;70.21;96566.45;1656680;85;26083;-89
2021/01/22 13:34:48;;;;;;;;;;;;;;;8.33;70.31;96572.09;1622615;87;22186;-91
2021/01/22 13:37:34;;;;;;;;;;;;;;;8.26;70.40;96568.36;1653204;85;26191;-89
2021/01/22 13:40:21;;;;;;;;;;;;;;;8.19;70.52;96567.73;1653618;85;25849;-89
2021/01/22 13:43:07;;;;;;;;;;;;;;;8.12;70.62;96570.09;1653852;85;20539;-87
2021/01/22 13:45:53;;;;;;;;;;;;;;;8.06;70.74;96567.20;1625438;87;25086;-90
2021/01/22 13:48:39;;;;;;;;;;;;;;;8.04;70.86;96573.02;1619824;87;22203;-90
2021/01/22 13:51:25;;;;;;;;;;;;;;;8.03;70.98;96570.89;1659469;85;26130;-90
2021/01/22 13:54:11;;;;;;;;;;;;;;;8.04;71.10;96571.72;1626209;87;24637;-89
2021/01/22 13:56:58;;;;;;;;;;;;;;;8.04;71.22;96567.81;1641457;86;20387;-90
2021/01/22 13:59:45;;;;;;;;;;;;;;;8.04;71.35;96572.54;1659561;85;25026;-90
2021/01/22 14:02:30;;;;;;;;;;;;;;;8.04;71.45;96579.53;1633404;87;22162;-89
2021/01/22 14:05:18;;;;;;;;;;;;;;;8.02;71.58;96577.56;1634412;87;26132;-89
2021/01/22 14:08:04;;;;;;;;;;;;;;;7.98;71.71;96570.00;1634115;87;24648;-88
2021/01/22 14:10:49;;;;;;;;;;;;;;;7.98;71.80;96576.99;1637548;87;20284;-89
2021/01/22 14:13:35;;;;;;;;;;;;;;;7.98;71.93;96579.13;1639451;86;25203;-89
2021/01/22 14:16:21;;;;;;;;;;;;;;;7.99;72.01;96576.04;1639830;86;22182;-89
2021/01/22 14:19:07;;;;;;;;;;;;;;;7.98;72.13;96578.30;1638044;86;26238;-89
2021/01/22 14:21:54;;;;;;;;;;;;;;;7.98;72.24;96574.39;1637770;86;24817;-89
2021/01/22 14:24:39;;;;;;;;;;;;;;;8.01;72.34;96575.44;1657059;85;20735;-89
2021/01/22 14:27:26;;;;;;;;;;;;;;;7.98;72.45;96581.72;1628889;87;25092;-89
2021/01/22 14:30:12;;;;;;;;;;;;;;;7.99;72.54;96580.77;1650232;86;22137;-90
2021/01/22 14:32:58;;;;;;;;;;;;;;;7.99;72.65;96577.34;1666135;85;26133;-89
2021/01/22 14:35:44;;;;;;;;;;;;;;;8.00;72.73;96578.99;1624627;87;24589;-89
2021/01/22 14:38:35;;;;;;;;;;;;;;;7.98;72.81;96581.72;1626239;87;20200;-90